Time;durP1;ratioP1;P1;durP2;ratioP2;P2;SDS_P1;SDS_P2;PMS_P1;PMS_P2;Temp;Humidity;BMP_temperature;BMP_pressure;BME280_temperature;BME280_humidity;BME280_pressure;Samples;Min_cycle;Max_cycle;Signal;HPM_P1;HPM_P2
2021/06/01 00:00:51;;;;;;;6.75;2.50;;;;;;;20.71;56.66;100630.75;5071132;28;20127;-66
2021/06/01 00:03:18;;;;;;;7.07;2.85;;;;;;;20.68;56.58;100639.75;5071428;28;20037;-66
2021/06/01 00:05:45;;;;;;;7.57;2.80;;;;;;;20.60;56.20;100639.09;5070859;28;20115;-66
2021/06/01 00:08:13;;;;;;;8.65;3.35;;;;;;;20.54;56.07;100633.03;5071055;28;20135;-65
2021/06/01 00:10:39;;;;;;;9.35;2.53;;;;;;;20.59;55.99;100634.66;5071503;28;20557;-66
2021/06/01 00:13:06;;;;;;;8.65;3.00;;;;;;;20.57;56.23;100639.16;5071699;28;20048;-65
2021/06/01 00:15:35;;;;;;;8.82;2.78;;;;;;;20.54;56.17;100627.66;5070179;28;20116;-65
2021/06/01 00:18:02;;;;;;;4.47;2.42;;;;;;;20.54;56.12;100627.66;5070754;28;20193;-65
2021/06/01 00:20:29;;;;;;;6.20;2.25;;;;;;;20.48;56.52;100636.72;5071288;28;20049;-66
2021/06/01 00:22:56;;;;;;;8.90;2.55;;;;;;;20.32;56.42;100635.34;5070728;28;20124;-65
2021/06/01 00:25:23;;;;;;;9.52;2.95;;;;;;;20.32;56.69;100630.00;5071346;28;20065;-66
2021/06/01 00:27:50;;;;;;;6.32;2.58;;;;;;;20.36;56.61;100631.69;5070957;28;20068;-65
2021/06/01 00:30:18;;;;;;;7.15;2.25;;;;;;;20.35;56.29;100627.25;5069910;28;20036;-66
2021/06/01 00:32:46;;;;;;;5.70;2.40;;;;;;;20.29;56.18;100635.41;5071295;28;20036;-66
2021/06/01 00:35:14;;;;;;;4.88;2.30;;;;;;;20.17;55.92;100638.44;5070993;28;20403;-65
2021/06/01 00:37:41;;;;;;;7.55;3.00;;;;;;;20.25;56.18;100641.81;5050962;28;20045;-66
2021/06/01 00:40:09;;;;;;;9.93;2.92;;;;;;;20.33;55.51;100625.53;5067692;28;20051;-66
2021/06/01 00:42:36;;;;;;;7.13;2.75;;;;;;;20.39;55.87;100628.06;5071216;28;20041;-65
2021/06/01 00:45:04;;;;;;;7.55;2.22;;;;;;;20.37;55.62;100633.47;5070379;28;20159;-66
2021/06/01 00:47:31;;;;;;;7.05;2.65;;;;;;;20.30;55.99;100626.47;5070258;28;20044;-66
2021/06/01 00:50:00;;;;;;;5.68;2.55;;;;;;;20.21;56.10;100635.66;5070427;28;20111;-65
2021/06/01 00:52:27;;;;;;;7.82;2.47;;;;;;;20.16;56.02;100629.50;5070551;28;20119;-65
2021/06/01 00:54:55;;;;;;;7.28;2.50;;;;;;;20.12;56.03;100619.78;5070637;28;20120;-66
2021/06/01 00:57:21;;;;;;;6.72;2.80;;;;;;;20.12;56.13;100624.28;5070535;28;20036;-65
2021/06/01 00:59:48;;;;;;;6.88;3.15;;;;;;;19.95;56.05;100626.50;5070169;28;20555;-66
2021/06/01 01:02:15;;;;;;;9.30;2.42;;;;;;;19.87;56.00;100614.19;5069142;28;20044;-66
2021/06/01 01:04:43;;;;;;;7.88;2.33;;;;;;;19.84;56.14;100613.34;5070290;28;20049;-65
2021/06/01 01:07:21;;;;;;;8.15;2.50;;;;;;;19.84;56.17;100621.41;5050727;28;20041;-66
2021/06/01 01:09:50;;;;;;;8.82;2.83;;;;;;;19.86;56.04;100617.78;5058588;28;20044;-65
2021/06/01 01:12:22;;;;;;;7.93;2.22;;;;;;;19.92;55.93;100607.81;5069836;28;20064;-65
2021/06/01 01:14:53;;;;;;;10.30;2.80;;;;;;;19.92;55.96;100608.69;5070482;28;20028;-66
2021/06/01 01:17:23;;;;;;;9.45;3.10;;;;;;;19.92;55.83;100606.00;5069934;28;20124;-65
2021/06/01 01:20:06;;;;;;;8.35;2.70;;;;;;;19.94;55.76;100606.00;5069379;28;20048;-65
2021/06/01 01:22:38;;;;;;;7.75;2.90;;;;;;;19.75;56.02;100601.09;5070310;28;20094;-66
2021/06/01 01:25:12;;;;;;;4.90;2.17;;;;;;;19.79;55.93;100616.16;5069965;28;20052;-66
2021/06/01 01:28:01;;;;;;;5.05;2.28;;;;;;;20.00;55.71;100617.44;5069860;28;20040;-65
2021/06/01 01:30:35;;;;;;;10.25;2.45;;;;;;;19.71;55.82;100622.63;5055421;28;20479;-65
2021/06/01 01:33:16;;;;;;;6.78;2.50;;;;;;;19.58;56.03;100615.78;5066847;28;20028;-65
2021/06/01 01:35:45;;;;;;;7.53;2.85;;;;;;;19.58;55.91;100610.44;5069697;28;20120;-65
2021/06/01 01:38:13;;;;;;;6.95;2.47;;;;;;;19.60;55.71;100614.84;5069666;28;20557;-65
2021/06/01 01:40:43;;;;;;;10.07;2.50;;;;;;;19.66;55.79;100609.34;5068812;28;20085;-65
2021/06/01 01:43:15;;;;;;;7.70;2.30;;;;;;;19.70;55.67;100607.44;5069321;28;20053;-65
2021/06/01 01:45:47;;;;;;;5.80;2.20;;;;;;;19.70;55.50;100610.13;5069534;28;20047;-65
2021/06/01 01:51:12;;;;;;;4.65;2.05;;;;;;;19.50;55.85;100599.91;5068937;28;20044;-65
2021/06/01 01:53:44;;;;;;;5.20;1.92;;;;;;;19.40;55.96;100607.25;5069459;28;20082;-65
2021/06/01 01:56:11;;;;;;;5.85;2.05;;;;;;;19.40;55.66;100604.56;5069301;28;20040;-65
2021/06/01 01:58:39;;;;;;;5.40;1.88;;;;;;;19.26;55.44;100603.13;5069251;28;20060;-65
2021/06/01 02:01:06;;;;;;;7.95;1.92;;;;;;;19.13;55.47;100606.97;5068578;28;20048;-65
2021/06/01 02:03:36;;;;;;;6.75;2.30;;;;;;;19.23;55.14;100604.03;5069348;28;20040;-66
2021/06/01 02:06:03;;;;;;;6.60;2.38;;;;;;;19.30;55.36;100596.75;5069645;28;20045;-65
2021/06/01 02:08:30;;;;;;;6.32;2.42;;;;;;;19.34;55.08;100606.50;5068973;28;20131;-65
2021/06/01 02:10:57;;;;;;;6.60;2.42;;;;;;;19.35;55.49;100609.16;5068526;28;20124;-66
2021/06/01 02:13:27;;;;;;;4.55;2.08;;;;;;;19.36;54.98;100610.88;5067959;28;20129;-65
2021/06/01 02:15:54;;;;;;;9.98;2.40;;;;;;;19.36;55.27;100612.72;5068694;28;20495;-66
2021/06/01 02:18:21;;;;;;;6.65;2.78;;;;;;;19.37;55.04;100607.28;5068919;28;20037;-65
2021/06/01 02:20:52;;;;;;;6.38;2.10;;;;;;;19.35;55.02;100606.47;5068794;28;20404;-66
2021/06/01 02:26:27;;;;;;;6.20;2.83;;;;;;;19.31;54.79;100601.22;5049424;28;20055;-66
2021/06/01 02:28:59;;;;;;;6.88;2.30;;;;;;;19.25;54.94;100601.34;5050671;28;20499;-65
2021/06/01 02:31:29;;;;;;;7.97;1.70;;;;;;;19.26;54.62;100605.78;5067862;28;20036;-65
2021/06/01 02:33:57;;;;;;;4.10;2.03;;;;;;;19.22;54.45;100610.34;5068587;28;20048;-66
2021/06/01 02:36:27;;;;;;;6.97;2.30;;;;;;;19.20;54.10;100613.97;5068931;28;20563;-65
2021/06/01 02:38:57;;;;;;;3.42;1.80;;;;;;;19.18;53.90;100605.06;5068822;28;20032;-63
2021/06/01 02:41:24;;;;;;;3.33;1.63;;;;;;;19.22;53.13;100607.66;5068415;28;20488;-64
2021/06/01 02:43:52;;;;;;;4.25;1.55;;;;;;;19.26;52.70;100608.47;5068353;28;20128;-64
2021/06/01 02:46:20;;;;;;;3.22;1.40;;;;;;;19.30;52.13;100599.44;5068931;28;20109;-65
2021/06/01 02:48:48;;;;;;;4.07;1.70;;;;;;;19.26;51.93;100605.78;5069150;28;20501;-65
2021/06/01 02:51:17;;;;;;;8.45;1.92;;;;;;;19.17;52.12;100604.19;5069054;28;20063;-65
2021/06/01 02:53:58;;;;;;;2.35;1.50;;;;;;;19.15;51.88;100608.72;5072086;28;20488;-66
2021/06/01 02:56:26;;;;;;;3.97;1.55;;;;;;;19.21;51.21;100610.38;5072938;28;20044;-65
2021/06/01 02:58:53;;;;;;;4.47;1.50;;;;;;;19.22;51.04;100607.66;5072634;28;20127;-65
2021/06/01 03:01:24;;;;;;;5.25;1.30;;;;;;;19.34;50.66;100607.38;5071671;28;20065;-66
2021/06/01 03:03:52;;;;;;;6.28;1.50;;;;;;;19.49;49.55;100607.03;5068973;28;20128;-66
2021/06/01 03:06:20;;;;;;;3.33;1.00;;;;;;;19.62;48.96;100610.34;5072271;28;20556;-66
2021/06/01 03:08:49;;;;;;;1.48;0.93;;;;;;;19.78;47.97;100602.78;5072964;28;20548;-65
2021/06/01 03:11:19;;;;;;;2.85;1.20;;;;;;;19.90;47.12;100600.69;5071642;28;20041;-65
2021/06/01 03:13:47;;;;;;;5.80;1.55;;;;;;;20.04;45.96;100604.81;5070936;28;20033;-65
2021/06/01 03:16:14;;;;;;;4.35;1.20;;;;;;;20.18;45.59;100610.69;5072195;28;20715;-65
2021/06/01 03:18:42;;;;;;;4.80;1.20;;;;;;;20.29;44.95;100608.63;5072239;28;20504;-65
2021/06/01 03:21:10;;;;;;;4.03;1.23;;;;;;;20.43;44.22;100622.56;5072717;28;20041;-66
2021/06/01 03:23:37;;;;;;;8.85;1.23;;;;;;;20.61;43.87;100622.06;5071958;28;20037;-65
2021/06/01 03:26:06;;;;;;;2.17;1.08;;;;;;;20.76;43.46;100625.22;5071829;28;20496;-66
2021/06/01 03:28:34;;;;;;;4.13;0.98;;;;;;;20.90;43.54;100623.03;5072477;28;20036;-65
2021/06/01 03:31:02;;;;;;;5.25;0.85;;;;;;;21.11;42.12;100625.09;5071598;28;20036;-65
2021/06/01 03:33:30;;;;;;;1.65;1.05;;;;;;;21.26;42.33;100631.84;5070135;28;20063;-66
2021/06/01 03:35:57;;;;;;;4.78;1.00;;;;;;;21.42;42.30;100625.06;5071199;28;20036;-66
2021/06/01 03:38:24;;;;;;;1.55;0.63;;;;;;;21.56;41.90;100621.94;5070820;28;20044;-65
2021/06/01 03:40:51;;;;;;;1.75;0.70;;;;;;;21.73;41.51;100619.59;5071591;28;20183;-66
2021/06/01 03:43:20;;;;;;;4.00;1.35;;;;;;;21.95;40.29;100628.72;5070952;28;20445;-66
2021/06/01 03:45:47;;;;;;;2.22;0.73;;;;;;;22.12;39.29;100617.44;5071829;28;20043;-65
2021/06/01 03:48:14;;;;;;;2.70;1.10;;;;;;;22.29;38.13;100620.44;5071245;28;20124;-66
2021/06/01 03:50:41;;;;;;;2.50;0.85;;;;;;;22.45;37.55;100604.63;5072005;28;20039;-65
2021/06/01 03:53:08;;;;;;;2.50;1.10;;;;;;;22.59;37.34;100613.06;5066013;28;20048;-65
2021/06/01 03:55:36;;;;;;;2.75;1.30;;;;;;;22.79;36.53;100615.94;5071403;28;20043;-66
2021/06/01 03:58:03;;;;;;;5.72;0.90;;;;;;;22.92;36.30;100617.25;5071521;28;20131;-66
2021/06/01 04:00:32;;;;;;;2.50;0.93;;;;;;;23.07;35.56;100621.19;5070948;28;20039;-66
2021/06/01 04:02:59;;;;;;;2.78;0.90;;;;;;;23.21;35.21;100628.72;5070211;28;20052;-66
2021/06/01 04:05:27;;;;;;;6.15;0.70;;;;;;;23.33;34.80;100634.53;5071266;28;20047;-66
2021/06/01 04:07:54;;;;;;;3.63;0.98;;;;;;;23.47;34.84;100631.31;5071628;28;20128;-64
2021/06/01 04:10:21;;;;;;;3.72;0.93;;;;;;;23.57;34.98;100643.47;5071272;28;20042;-64
2021/06/01 04:12:48;;;;;;;3.88;0.85;;;;;;;23.70;34.71;100639.34;5070379;28;20119;-65
2021/06/01 04:15:16;;;;;;;5.82;0.75;;;;;;;23.85;35.01;100648.63;5070867;28;20060;-64
2021/06/01 04:17:45;;;;;;;4.50;1.35;;;;;;;24.04;34.62;100652.34;5071256;28;20040;-65
2021/06/01 04:20:12;;;;;;;4.50;1.33;;;;;;;24.16;34.32;100654.50;5071730;28;20044;-64
2021/06/01 04:22:39;;;;;;;1.90;0.80;;;;;;;24.33;34.12;100661.06;5069803;28;20106;-64
2021/06/01 04:25:08;;;;;;;3.67;1.08;;;;;;;24.46;33.98;100659.59;5071137;28;20053;-64
2021/06/01 04:27:35;;;;;;;3.88;0.70;;;;;;;24.61;33.64;100667.88;5071125;28;20048;-65
2021/06/01 04:30:04;;;;;;;2.05;0.90;;;;;;;24.77;33.67;100670.78;5070574;28;20086;-64
2021/06/01 04:32:31;;;;;;;4.28;0.70;;;;;;;24.91;33.46;100668.41;5070525;28;20044;-64
2021/06/01 04:35:01;;;;;;;3.70;0.93;;;;;;;25.04;33.38;100674.13;5071105;28;20032;-63
2021/06/01 04:37:28;;;;;;;4.20;0.80;;;;;;;25.12;33.28;100682.75;5058018;28;20043;-64
2021/06/01 04:39:56;;;;;;;4.95;0.88;;;;;;;25.36;33.44;100688.84;5065084;28;20055;-64
2021/06/01 04:42:23;;;;;;;3.17;0.80;;;;;;;25.57;33.37;100681.56;5066917;28;20098;-64
2021/06/01 04:44:51;;;;;;;2.35;0.90;;;;;;;25.78;33.20;100694.09;5068778;28;20633;-64
2021/06/01 04:47:17;;;;;;;4.88;1.00;;;;;;;26.05;33.44;100683.75;5070758;28;20060;-64
2021/06/01 04:49:44;;;;;;;2.80;0.80;;;;;;;26.32;33.25;100689.66;5069725;28;20036;-64
2021/06/01 04:52:13;;;;;;;6.00;0.93;;;;;;;26.63;32.73;100691.66;5067235;28;20127;-64
2021/06/01 04:54:40;;;;;;;2.08;0.93;;;;;;;26.93;32.73;100699.06;5067353;28;20040;-64
2021/06/01 04:57:08;;;;;;;2.33;0.80;;;;;;;27.21;31.95;100697.59;5066301;28;20064;-63
2021/06/01 04:59:37;;;;;;;2.92;1.02;;;;;;;27.51;31.28;100698.59;5070181;28;20536;-64
2021/06/01 05:02:05;;;;;;;3.65;0.98;;;;;;;27.63;30.79;100705.25;5064086;28;20041;-64
2021/06/01 05:04:32;;;;;;;2.63;0.80;;;;;;;27.71;30.14;100703.84;5076177;28;20040;-64
2021/06/01 05:07:00;;;;;;;4.65;1.00;;;;;;;27.84;30.52;100700.41;5064167;28;20101;-63
2021/06/01 05:09:29;;;;;;;3.08;0.75;;;;;;;28.15;30.07;100708.63;5064402;28;20396;-64
2021/06/01 05:11:57;;;;;;;3.50;1.00;;;;;;;28.36;29.33;100710.03;5067937;28;20123;-64
2021/06/01 05:14:24;;;;;;;2.17;0.82;;;;;;;28.53;29.39;100709.06;5069483;28;20064;-64
2021/06/01 05:16:51;;;;;;;2.17;1.25;;;;;;;28.51;28.77;100708.28;5069531;28;20583;-63
2021/06/01 05:19:18;;;;;;;2.42;0.90;;;;;;;28.63;28.31;100722.97;5061744;28;20052;-64
2021/06/01 05:21:45;;;;;;;2.15;1.00;;;;;;;28.73;27.89;100725.03;5065939;28;20050;-64
2021/06/01 05:24:12;;;;;;;3.88;1.10;;;;;;;28.96;28.00;100720.94;5070318;28;20543;-64
2021/06/01 05:26:41;;;;;;;2.50;0.63;;;;;;;29.04;27.73;100723.19;5075768;28;20043;-64
2021/06/01 05:29:09;;;;;;;2.88;1.15;;;;;;;29.02;27.61;100731.44;5065296;28;20048;-64
2021/06/01 05:31:44;;;;;;;4.35;1.02;;;;;;;29.18;27.62;100720.50;5067587;28;20098;-64
2021/06/01 05:34:12;;;;;;;2.97;0.85;;;;;;;29.55;27.50;100711.78;5068550;28;20393;-64
2021/06/01 05:36:40;;;;;;;5.38;1.42;;;;;;;30.00;27.34;100715.25;5068387;28;20041;-63
2021/06/01 05:39:11;;;;;;;5.93;1.40;;;;;;;30.27;27.05;100712.56;5062397;28;20032;-64
2021/06/01 05:41:38;;;;;;;2.85;0.98;;;;;;;30.49;26.82;100710.16;5062246;28;20040;-63
2021/06/01 05:44:08;;;;;;;2.85;0.98;;;;;;;30.74;26.10;100710.22;5065253;28;20120;-64
2021/06/01 05:46:34;;;;;;;5.50;1.20;;;;;;;30.68;26.59;100718.84;5067514;28;20456;-64
2021/06/01 05:49:02;;;;;;;1.88;1.00;;;;;;;30.87;26.18;100724.75;5068186;28;20032;-64
2021/06/01 05:51:34;;;;;;;4.07;0.90;;;;;;;30.91;25.88;100716.38;5068393;28;20036;-64
2021/06/01 05:54:01;;;;;;;2.30;0.90;;;;;;;31.10;25.98;100717.75;5068734;28;20036;-64
2021/06/01 05:56:28;;;;;;;4.20;1.23;;;;;;;31.08;25.64;100719.69;5068935;28;20128;-64
2021/06/01 05:58:55;;;;;;;2.75;1.00;;;;;;;31.21;26.17;100719.69;5068445;28;20036;-64
2021/06/01 06:01:23;;;;;;;1.15;0.70;;;;;;;31.19;25.49;100719.81;5067015;28;20041;-64
2021/06/01 06:03:50;;;;;;;2.78;0.90;;;;;;;31.18;25.72;100718.06;5069592;28;20490;-64
2021/06/01 06:06:17;;;;;;;3.03;1.20;;;;;;;31.31;25.45;100717.22;5068960;28;20484;-64
2021/06/01 06:08:44;;;;;;;3.38;1.00;;;;;;;31.36;25.58;100728.66;5068446;28;20086;-63
2021/06/01 06:11:11;;;;;;;6.30;1.25;;;;;;;31.53;25.90;100723.72;5068735;28;20450;-64
2021/06/01 06:13:38;;;;;;;3.17;0.90;;;;;;;31.64;25.78;100721.09;5065758;28;20063;-64
2021/06/01 06:16:06;;;;;;;3.13;1.15;;;;;;;31.48;25.79;100723.19;5067957;28;20123;-64
2021/06/01 06:18:42;;;;;;;6.90;1.88;;;;;;;31.62;26.06;100734.03;5068423;28;20461;-64
2021/06/01 06:21:11;;;;;;;2.55;1.27;;;;;;;31.61;26.04;100737.72;5068318;28;20036;-64
2021/06/01 06:23:40;;;;;;;4.57;1.92;;;;;;;31.93;25.96;100748.16;5068064;28;20094;-64
2021/06/01 06:26:08;;;;;;;4.70;1.40;;;;;;;31.75;25.93;100744.94;5068025;28;20044;-64
2021/06/01 06:28:36;;;;;;;5.03;1.52;;;;;;;31.78;26.01;100752.88;5067354;28;20575;-64
2021/06/01 06:31:04;;;;;;;6.68;1.42;;;;;;;31.81;26.23;100743.59;5062863;28;20079;-65
2021/06/01 06:33:31;;;;;;;3.67;1.38;;;;;;;31.64;26.25;100742.97;5067548;28;20129;-65
2021/06/01 06:36:02;;;;;;;6.53;1.30;;;;;;;31.54;26.16;100763.69;5067401;28;20120;-65
2021/06/01 06:38:29;;;;;;;2.25;1.35;;;;;;;31.48;25.83;100750.47;5069481;28;20404;-64
2021/06/01 06:41:04;;;;;;;5.40;1.65;;;;;;;31.44;26.02;100753.56;5068896;28;20035;-65
2021/06/01 06:43:31;;;;;;;5.47;1.50;;;;;;;31.25;26.18;100751.22;5068649;28;20070;-65
2021/06/01 06:46:01;;;;;;;2.90;1.42;;;;;;;31.38;26.63;100756.69;5069162;28;20064;-65
2021/06/01 06:48:28;;;;;;;4.22;1.20;;;;;;;31.26;27.10;100761.16;5068735;28;20032;-65
2021/06/01 06:50:55;;;;;;;10.35;1.88;;;;;;;31.32;27.34;100768.91;5068798;28;20451;-65
2021/06/01 06:53:24;;;;;;;7.05;1.60;;;;;;;31.26;28.54;100750.25;5069043;28;20123;-64
2021/06/01 06:55:51;;;;;;;5.20;1.70;;;;;;;31.38;28.64;100754.84;5068503;28;20056;-65
2021/06/01 06:58:18;;;;;;;5.25;1.42;;;;;;;31.55;28.70;100770.91;5068831;28;20028;-65
2021/06/01 07:00:45;;;;;;;6.13;1.92;;;;;;;31.58;29.44;100773.41;5069010;28;20044;-65
2021/06/01 07:03:12;;;;;;;6.18;1.60;;;;;;;31.58;30.04;100772.53;5068846;28;20041;-65
2021/06/01 07:05:39;;;;;;;6.15;1.42;;;;;;;31.68;30.32;100776.38;5068660;28;20086;-65
2021/06/01 07:08:06;;;;;;;6.72;1.50;;;;;;;31.58;30.80;100780.72;5069185;28;20051;-65
2021/06/01 07:10:35;;;;;;;5.43;1.50;;;;;;;31.41;30.95;100790.13;5068360;28;20058;-65
2021/06/01 07:13:10;;;;;;;7.57;1.77;;;;;;;31.04;31.84;100796.38;5069060;28;20060;-65
2021/06/01 07:15:43;;;;;;;9.77;1.90;;;;;;;30.70;32.86;100792.34;5069132;28;20408;-65
2021/06/01 07:18:10;;;;;;;7.20;2.08;;;;;;;30.21;33.65;100801.00;5068563;28;20051;-65
2021/06/01 07:20:37;;;;;;;7.93;2.10;;;;;;;30.27;34.14;100800.59;5068811;28;20032;-64
2021/06/01 07:23:04;;;;;;;6.70;1.80;;;;;;;30.83;33.73;100795.97;5067477;28;20487;-65
2021/06/01 07:25:32;;;;;;;4.13;1.58;;;;;;;31.30;33.64;100798.19;5068290;28;20044;-65
2021/06/01 07:28:02;;;;;;;7.95;1.80;;;;;;;31.40;33.09;100787.50;5068757;28;20043;-64
2021/06/01 07:30:35;;;;;;;4.97;1.60;;;;;;;30.67;34.07;100801.59;5068963;28;20036;-64
2021/06/01 07:33:02;;;;;;;5.18;1.85;;;;;;;30.48;34.60;100806.50;5068270;28;20044;-65
2021/06/01 07:35:29;;;;;;;4.63;1.90;;;;;;;30.66;34.46;100807.13;5068053;28;20373;-64
2021/06/01 07:37:56;;;;;;;4.30;1.58;;;;;;;30.83;34.80;100820.53;5069741;28;20048;-65
2021/06/01 07:40:24;;;;;;;7.95;2.08;;;;;;;31.05;34.67;100822.72;5072023;28;20033;-65
2021/06/01 07:42:51;;;;;;;9.57;2.08;;;;;;;30.73;35.27;100820.25;5072006;28;20040;-65
2021/06/01 07:45:20;;;;;;;6.28;1.83;;;;;;;30.67;35.73;100806.16;5071491;28;20119;-65
2021/06/01 07:47:47;;;;;;;7.40;2.20;;;;;;;30.43;36.03;100825.00;5071395;28;20040;-65
2021/06/01 07:50:14;;;;;;;8.25;1.98;;;;;;;30.37;36.27;100823.56;5071854;28;20033;-65
2021/06/01 07:52:41;;;;;;;7.47;2.53;;;;;;;30.57;35.73;100822.28;5071893;28;20044;-65
2021/06/01 07:55:09;;;;;;;7.22;2.05;;;;;;;30.59;35.77;100824.91;5071316;28;20617;-64
2021/06/01 07:57:37;;;;;;;10.57;2.40;;;;;;;30.15;36.53;100828.66;5054851;28;20041;-65
2021/06/01 08:00:05;;;;;;;10.10;2.15;;;;;;;30.16;36.40;100841.31;5050196;28;20128;-65
2021/06/01 08:02:34;;;;;;;6.10;2.05;;;;;;;29.62;37.13;100840.19;5051176;28;20047;-66
2021/06/01 08:05:01;;;;;;;7.63;2.17;;;;;;;29.29;37.85;100843.09;5051771;28;20087;-65
2021/06/01 08:07:28;;;;;;;8.98;2.55;;;;;;;29.30;38.08;100837.59;5051448;28;20567;-65
2021/06/01 08:09:55;;;;;;;7.10;2.40;;;;;;;29.80;37.69;100852.63;5054818;28;20408;-65
2021/06/01 08:12:22;;;;;;;5.47;2.13;;;;;;;29.84;37.27;100850.63;5071462;28;20051;-65
2021/06/01 08:14:52;;;;;;;10.77;2.03;;;;;;;30.16;37.13;100851.31;5071215;28;20029;-66
2021/06/01 08:17:19;;;;;;;5.65;1.90;;;;;;;30.39;36.96;100848.00;5071683;28;20101;-64
2021/06/01 08:19:48;;;;;;;5.78;2.10;;;;;;;30.57;36.53;100859.56;5071410;28;20067;-65
2021/06/01 08:22:30;;;;;;;6.97;1.80;;;;;;;30.27;37.28;100851.50;5071285;28;20043;-65
2021/06/01 08:24:57;;;;;;;4.70;2.08;;;;;;;30.13;37.20;100854.25;5071055;28;20056;-65
2021/06/01 08:27:25;;;;;;;6.55;2.00;;;;;;;30.26;37.35;100858.78;5069693;28;20090;-64
2021/06/01 08:29:54;;;;;;;7.63;2.20;;;;;;;30.58;36.85;100864.91;5070378;28;20539;-65
2021/06/01 08:32:21;;;;;;;7.45;2.40;;;;;;;30.52;36.81;100857.16;5070410;28;20040;-65
2021/06/01 08:34:50;;;;;;;6.75;1.90;;;;;;;30.55;36.59;100862.38;5070683;28;20071;-65
2021/06/01 08:37:17;;;;;;;6.18;2.20;;;;;;;30.99;35.88;100855.78;5071289;28;20120;-65
2021/06/01 08:39:44;;;;;;;6.32;2.08;;;;;;;30.62;36.52;100863.72;5071244;28;20048;-65
2021/06/01 08:42:12;;;;;;;8.13;2.10;;;;;;;30.67;37.18;100866.16;5071169;28;20051;-64
2021/06/01 08:44:39;;;;;;;6.15;2.22;;;;;;;30.69;37.36;100877.84;5070998;28;20492;-65
2021/06/01 08:47:07;;;;;;;4.55;1.50;;;;;;;31.09;37.04;100868.75;5070943;28;20115;-65
2021/06/01 08:49:34;;;;;;;5.22;1.75;;;;;;;31.41;36.73;100857.47;5070665;28;20048;-65
2021/06/01 08:52:03;;;;;;;8.93;1.88;;;;;;;31.46;36.84;100866.22;5070921;28;20044;-65
2021/06/01 08:54:32;;;;;;;4.88;1.50;;;;;;;31.39;37.27;100860.31;5070720;28;20462;-65
2021/06/01 08:57:00;;;;;;;7.97;1.60;;;;;;;31.12;37.77;100864.94;5069829;28;20040;-65
2021/06/01 08:59:26;;;;;;;3.47;1.15;;;;;;;31.25;37.78;100871.28;5070614;28;20045;-65
2021/06/01 09:01:53;;;;;;;5.85;1.60;;;;;;;31.30;38.10;100871.00;5069866;28;20084;-65
2021/06/01 09:04:20;;;;;;;12.77;1.85;;;;;;;30.83;38.72;100875.06;5068297;28;20040;-65
2021/06/01 09:06:54;;;;;;;5.38;1.50;;;;;;;30.68;39.06;100876.94;5069601;28;20040;-65
2021/06/01 09:09:37;;;;;;;8.32;2.15;;;;;;;31.17;38.12;100873.69;5068093;28;20496;-65
2021/06/01 09:12:11;;;;;;;6.78;1.80;;;;;;;31.20;37.56;100868.00;5054421;28;20142;-65
2021/06/01 09:22:55;;;;;;;5.45;1.88;;;;;;;31.59;36.84;100873.47;5063864;28;20471;-64
2021/06/01 09:25:33;;;;;;;24.65;6.53;;;;;;;31.77;36.58;100874.00;5079320;28;20059;-65
2021/06/01 09:28:02;;;;;;;6.40;2.00;;;;;;;32.04;36.20;100871.16;5050597;28;20037;-64
2021/06/01 09:30:36;;;;;;;4.03;1.67;;;;;;;32.06;35.62;100886.47;5057249;28;20039;-64
2021/06/01 09:33:05;;;;;;;4.97;1.77;;;;;;;31.85;35.86;100876.22;5064704;28;20045;-64
2021/06/01 09:35:57;;;;;;;7.28;1.63;;;;;;;31.61;36.56;100876.97;5054460;28;20046;-64
2021/06/01 09:38:27;;;;;;;5.70;2.13;;;;;;;31.49;36.92;100880.53;5055034;28;20037;-64
2021/06/01 09:41:05;;;;;;;6.00;1.70;;;;;;;31.83;35.92;100875.47;5069214;28;20641;-64
2021/06/01 09:43:34;;;;;;;4.55;1.95;;;;;;;32.00;35.98;100876.00;5067719;28;20051;-64
2021/06/01 09:46:19;;;;;;;4.95;1.50;;;;;;;32.11;35.15;100869.75;5066773;28;20028;-64
2021/06/01 09:48:47;;;;;;;5.10;1.60;;;;;;;32.14;35.38;100863.22;5067903;28;20059;-64
2021/06/01 09:51:25;;;;;;;6.32;2.08;;;;;;;32.17;34.87;100861.13;5068250;28;20048;-64
2021/06/01 09:53:55;;;;;;;6.63;1.75;;;;;;;32.06;35.00;100853.69;5065057;28;20170;-64
2021/06/01 09:56:25;;;;;;;6.18;1.65;;;;;;;32.09;34.43;100847.16;5068507;28;20600;-64
2021/06/01 09:58:53;;;;;;;3.65;1.45;;;;;;;32.02;34.14;100841.25;5068482;28;20039;-65
2021/06/01 10:01:32;;;;;;;8.77;2.40;;;;;;;31.90;34.54;100849.47;5068527;28;20090;-64
2021/06/01 10:04:00;;;;;;;6.00;2.13;;;;;;;31.66;34.56;100842.03;5060441;28;20701;-65
2021/06/01 10:06:34;;;;;;;5.72;1.88;;;;;;;31.49;35.43;100846.91;5052737;28;20059;-64
2021/06/01 10:09:11;;;;;;;4.88;1.80;;;;;;;31.14;35.49;100847.50;5053511;28;20124;-64
2021/06/01 10:11:40;;;;;;;5.72;2.00;;;;;;;30.91;36.06;100847.28;5052510;28;20041;-64
2021/06/01 10:14:07;;;;;;;4.50;1.70;;;;;;;30.95;36.19;100855.16;5067481;28;20040;-64
2021/06/01 10:16:35;;;;;;;6.07;2.03;;;;;;;30.98;36.08;100856.81;5068352;28;20071;-65
2021/06/01 10:19:04;;;;;;;3.85;1.60;;;;;;;30.99;36.34;100872.16;5065272;28;20545;-65
2021/06/01 10:21:32;;;;;;;4.32;2.00;;;;;;;30.84;36.69;100865.91;5063207;28;20083;-65
2021/06/01 10:23:59;;;;;;;6.45;1.77;;;;;;;30.88;36.87;100872.91;5051491;28;20033;-64
2021/06/01 10:26:28;;;;;;;8.95;2.05;;;;;;;30.79;36.83;100858.00;5050243;28;20045;-64
2021/06/01 10:28:57;;;;;;;5.63;2.08;;;;;;;30.58;37.21;100862.19;5055100;28;20555;-64
2021/06/01 10:31:25;;;;;;;5.28;1.90;;;;;;;30.65;37.23;100858.09;5062929;28;20076;-65
2021/06/01 10:33:55;;;;;;;4.65;2.00;;;;;;;30.79;36.96;100859.88;5051844;28;20075;-64
2021/06/01 10:42:29;;;;;;;6.78;2.20;;;;;;;30.85;36.42;100860.34;5068540;28;20033;-65
2021/06/01 10:42:36;;;;;;;7.15;2.28;;;;;;;30.61;36.87;100852.91;5059121;28;20097;-65
2021/06/01 10:51:26;;;;;;;18.70;2.50;;;;;;;31.31;35.30;100849.03;5066574;28;20239;-64
2021/06/01 10:53:54;;;;;;;9.88;2.13;;;;;;;31.14;35.26;100852.06;5061341;28;20412;-65
2021/06/01 10:56:21;;;;;;;3.95;2.03;;;;;;;30.69;35.03;100859.63;5065705;28;20040;-64
2021/06/01 10:59:11;;;;;;;6.40;2.15;;;;;;;31.04;35.12;100849.06;5066670;28;20036;-65
2021/06/01 11:01:56;;;;;;;4.85;1.90;;;;;;;31.47;34.29;100855.19;5067520;28;20077;-64
2021/06/01 11:04:26;;;;;;;4.38;2.15;;;;;;;31.73;33.86;100847.91;5062860;28;20040;-63
2021/06/01 11:09:49;;;;;;;4.35;2.05;;;;;;;31.48;33.53;100850.59;5051303;28;20079;-65
2021/06/01 11:12:45;;;;;;;4.10;1.55;;;;;;;31.81;33.49;100847.38;5062687;28;20087;-64
2021/06/01 11:15:34;;;;;;;6.55;2.00;;;;;;;31.61;33.92;100859.72;5066252;28;20091;-65
2021/06/01 11:18:23;;;;;;;5.40;2.00;;;;;;;31.75;33.77;100861.47;5068272;28;20040;-65
2021/06/01 11:21:16;;;;;;;4.65;1.80;;;;;;;31.77;33.67;100857.63;5064947;28;20047;-66
2021/06/01 11:24:17;;;;;;;4.20;2.00;;;;;;;31.62;33.97;100854.16;5068419;28;20069;-65
2021/06/01 11:36:00;;;;;;;4.93;2.10;;;;;;;32.77;32.21;100855.75;5070827;28;20063;-65
2021/06/01 11:38:33;;;;;;;5.78;2.50;;;;;;;32.79;32.46;100856.50;5071189;28;20089;-65
2021/06/01 11:42:46;;;;;;;8.10;2.25;;;;;;;32.68;32.81;100855.59;5070548;28;20044;-65
2021/06/01 11:44:14;;;;;;;6.80;2.10;;;;;;;32.91;32.85;100856.56;5062261;28;20041;-65
2021/06/01 11:46:43;;;;;;;4.72;2.05;;;;;;;33.27;32.13;100858.38;5071849;28;20055;-65
2021/06/01 11:51:57;;;;;;;5.90;2.00;;;;;;;33.15;32.37;100854.69;5070905;28;20060;-65
2021/06/01 11:54:24;;;;;;;3.95;1.52;;;;;;;33.18;32.03;100855.31;5071753;28;20032;-66
2021/06/01 12:05:20;;;;;;;5.18;1.90;;;;;;;32.19;33.49;100852.84;5058600;28;20051;-66
2021/06/01 12:19:09;;;;;;;3.35;1.60;;;;;;;33.52;31.98;100875.50;5070829;28;20437;-66
2021/06/01 12:21:38;;;;;;;4.63;2.22;;;;;;;33.84;31.40;100870.25;5071424;28;20060;-66
2021/06/01 12:24:10;;;;;;;4.65;1.50;;;;;;;33.08;33.07;100857.00;5070977;28;20065;-66
2021/06/01 12:26:58;;;;;;;6.30;2.40;;;;;;;32.31;34.26;100855.53;5069138;28;20037;-66
2021/06/01 12:32:14;;;;;;;6.18;1.83;;;;;;;32.26;34.28;100856.88;5071033;28;20047;-65
2021/06/01 12:34:57;;;;;;;4.28;1.75;;;;;;;32.74;33.56;100868.78;5070690;28;20044;-66
2021/06/01 13:20:51;;;;;;;5.60;1.67;;;;;;;32.11;33.17;100901.66;5069365;28;20079;-67